Time;durP1;ratioP1;P1;durP2;ratioP2;P2;SDS_P1;SDS_P2;PMS_P1;PMS_P2;Temp;Humidity;BMP_temperature;BMP_pressure;BME280_temperature;BME280_humidity;BME280_pressure;Samples;Min_cycle;Max_cycle;Signal;HPM_P1;HPM_P2
2021/06/23 00:00:08;;;;;;;29.90;14.35;;;;;;;23.68;59.12;98642.13;125673;1096;102938;-70
2021/06/23 00:02:56;;;;;;;30.73;14.63;;;;;;;23.66;59.62;98646.92;125626;1097;103948;-71
2021/06/23 00:05:26;;;;;;;23.23;13.60;;;;;;;23.64;59.46;98647.15;125621;1096;102948;-69
2021/06/23 00:07:55;;;;;;;25.20;13.90;;;;;;;23.59;59.30;98638.78;125650;1095;102922;-68
2021/06/23 00:10:25;;;;;;;30.47;14.40;;;;;;;23.57;59.41;98633.58;125593;1095;103068;-69
2021/06/23 00:13:00;;;;;;;24.37;13.30;;;;;;;23.55;59.70;98637.52;125663;1096;102929;-69
2021/06/23 00:15:29;;;;;;;25.87;13.77;;;;;;;23.51;59.38;98645.26;125508;1095;102982;-69
2021/06/23 00:17:57;;;;;;;27.70;13.63;;;;;;;23.48;59.63;98640.23;125564;1095;103183;-68
2021/06/23 00:20:26;;;;;;;26.03;12.50;;;;;;;23.48;59.74;98651.09;125577;1095;102945;-68
2021/06/23 00:22:56;;;;;;;25.20;12.90;;;;;;;23.46;59.37;98653.17;125428;1095;102982;-68
2021/06/23 00:25:25;;;;;;;25.43;12.73;;;;;;;23.45;59.63;98651.50;125493;1095;103034;-69
2021/06/23 00:27:54;;;;;;;29.83;13.10;;;;;;;23.42;59.66;98654.63;125445;1095;103012;-67
2021/06/23 00:30:24;;;;;;;28.40;12.63;;;;;;;23.33;59.39;98656.70;125565;1094;103062;-69
2021/06/23 00:33:03;;;;;;;27.05;13.05;;;;;;;23.14;59.74;98656.39;125622;1095;102914;-69
2021/06/23 00:35:32;;;;;;;27.53;13.90;;;;;;;23.00;59.61;98646.55;126296;1097;102950;-68
2021/06/23 00:38:02;;;;;;;24.40;12.73;;;;;;;22.92;59.74;98641.30;125581;1094;103011;-68
2021/06/23 00:40:31;;;;;;;26.20;13.17;;;;;;;22.84;60.13;98643.14;127627;1096;102643;-68
2021/06/23 00:42:59;;;;;;;27.63;13.17;;;;;;;22.75;60.00;98649.77;127669;1096;101002;-68
2021/06/23 00:45:29;;;;;;;25.10;12.33;;;;;;;22.67;60.00;98644.51;127765;1095;101076;-69
2021/06/23 00:47:57;;;;;;;32.00;14.23;;;;;;;22.57;60.07;98653.86;127723;1096;101020;-68
2021/06/23 00:50:27;;;;;;;22.80;12.77;;;;;;;22.57;60.48;98672.84;127771;1095;100671;-69
2021/06/23 00:52:58;;;;;;;25.10;13.00;;;;;;;22.62;60.74;98674.94;126997;1096;101852;-70
2021/06/23 00:55:28;;;;;;;25.10;12.57;;;;;;;22.67;60.63;98675.17;125633;1095;103364;-69
2021/06/23 00:57:58;;;;;;;26.83;12.97;;;;;;;22.69;60.97;98678.53;125643;1094;102943;-69
2021/06/23 01:00:31;;;;;;;25.00;13.17;;;;;;;22.72;60.51;98696.25;125632;1096;103073;-69
2021/06/23 01:03:02;;;;;;;26.47;13.73;;;;;;;22.71;61.09;98684.59;125605;1095;103000;-68
2021/06/23 01:05:32;;;;;;;24.70;13.07;;;;;;;22.71;61.08;98676.45;125520;1095;103014;-69
2021/06/23 01:08:03;;;;;;;28.50;14.45;;;;;;;22.70;61.12;98674.78;125588;1097;103377;-69
2021/06/23 01:10:35;;;;;;;24.90;11.70;;;;;;;22.69;60.76;98680.38;125710;1097;102923;-69
2021/06/23 01:13:25;;;;;;;26.37;13.27;;;;;;;22.63;61.21;98676.61;125624;1096;102942;-69
2021/06/23 01:16:02;;;;;;;25.87;12.60;;;;;;;22.58;61.21;98679.08;125652;1097;103055;-70
2021/06/23 01:18:37;;;;;;;29.70;13.00;;;;;;;22.54;61.03;98680.51;125679;1097;102991;-69
2021/06/23 01:21:09;;;;;;;28.05;12.65;;;;;;;22.47;61.37;98668.78;125596;1096;103030;-70
2021/06/23 01:23:37;;;;;;;24.93;11.73;;;;;;;22.39;60.97;98673.32;125703;1097;103069;-70
2021/06/23 01:26:06;;;;;;;23.60;12.23;;;;;;;22.34;61.31;98673.07;125662;1095;103034;-68
2021/06/23 01:28:34;;;;;;;23.87;12.27;;;;;;;22.29;61.17;98670.94;125692;1097;103188;-70
2021/06/23 01:31:04;;;;;;;27.90;12.70;;;;;;;22.29;61.21;98681.77;125707;1097;103071;-69
2021/06/23 01:33:35;;;;;;;24.67;12.13;;;;;;;22.29;61.71;98684.48;125636;1096;103065;-70
2021/06/23 01:36:07;;;;;;;22.05;11.73;;;;;;;22.27;61.46;98681.13;125669;1096;103537;-69
2021/06/23 01:38:37;;;;;;;24.43;11.53;;;;;;;22.24;61.62;98689.65;125672;1096;102916;-69
2021/06/23 01:41:07;;;;;;;24.37;11.50;;;;;;;22.21;61.91;98694.64;125696;1096;103121;-69
2021/06/23 01:43:37;;;;;;;25.77;11.40;;;;;;;22.22;61.48;98704.44;125659;1096;102977;-69
2021/06/23 01:46:08;;;;;;;26.83;12.10;;;;;;;22.19;61.81;98707.53;125650;1094;102922;-69
2021/06/23 01:48:37;;;;;;;23.67;11.27;;;;;;;22.16;61.75;98708.78;125663;1096;102916;-69
2021/06/23 01:51:06;;;;;;;24.57;11.63;;;;;;;22.14;62.16;98706.25;125597;1094;103418;-69
2021/06/23 01:53:36;;;;;;;23.47;10.70;;;;;;;22.13;61.59;98712.70;125899;1095;102937;-69
2021/06/23 01:56:07;;;;;;;25.33;12.77;;;;;;;22.11;61.84;98712.05;126033;1095;102341;-71
2021/06/23 01:58:40;;;;;;;24.87;11.53;;;;;;;22.11;62.02;98722.06;125499;1094;103115;-69
2021/06/23 02:01:09;;;;;;;27.20;12.23;;;;;;;22.09;61.60;98719.53;125659;1097;102991;-69
2021/06/23 02:03:54;;;;;;;25.03;12.17;;;;;;;22.09;61.80;98724.95;125650;1097;103065;-69
2021/06/23 02:07:01;;;;;;;26.67;12.90;;;;;;;22.05;61.85;98714.72;125679;1097;103000;-69
2021/06/23 02:09:51;;;;;;;24.67;11.00;;;;;;;22.00;62.32;98726.14;125669;1097;104463;-72
2021/06/23 02:12:21;;;;;;;22.57;11.30;;;;;;;21.98;61.91;98728.20;125641;1095;103371;-69
2021/06/23 02:14:58;;;;;;;22.20;11.80;;;;;;;21.93;62.17;98725.23;125670;1094;103065;-69
2021/06/23 02:17:31;;;;;;;20.90;10.27;;;;;;;21.90;61.95;98734.57;125631;1094;102923;-68
2021/06/23 02:20:02;;;;;;;20.83;10.77;;;;;;;21.84;62.89;98733.48;125652;1094;102983;-70
2021/06/23 02:22:34;;;;;;;23.80;10.77;;;;;;;21.83;62.17;98739.08;125681;1096;103055;-72
2021/06/23 02:25:12;;;;;;;25.30;10.80;;;;;;;21.82;62.11;98738.25;125607;1094;102959;-70
2021/06/23 02:27:42;;;;;;;26.73;11.20;;;;;;;21.81;62.25;98735.72;125630;1097;103167;-69
2021/06/23 02:30:14;;;;;;;24.10;10.97;;;;;;;21.76;62.42;98741.73;125609;1096;102925;-71
2021/06/23 02:32:45;;;;;;;26.73;10.90;;;;;;;21.71;62.51;98752.28;127234;1097;100630;-68
2021/06/23 02:35:15;;;;;;;26.93;12.27;;;;;;;21.65;62.37;98750.34;125474;1096;103177;-69
2021/06/23 02:37:45;;;;;;;25.03;11.63;;;;;;;21.63;62.23;98757.81;125629;1096;103182;-69
2021/06/23 02:40:19;;;;;;;22.37;11.13;;;;;;;21.61;62.44;98759.84;125667;1096;103000;-71
2021/06/23 02:42:50;;;;;;;24.68;11.75;;;;;;;21.60;62.67;98767.13;125670;1097;102916;-68
2021/06/23 02:45:23;;;;;;;28.97;11.63;;;;;;;21.59;62.49;98765.45;125662;1095;103412;-70
2021/06/23 02:47:54;;;;;;;32.50;13.30;;;;;;;21.56;62.95;98755.86;125549;1096;103689;-68
2021/06/23 02:50:29;;;;;;;29.83;12.03;;;;;;;21.56;62.89;98763.13;125673;1096;103120;-72
2021/06/23 02:53:00;;;;;;;24.53;11.37;;;;;;;21.55;63.27;98765.01;125679;1097;103191;-70
2021/06/23 02:55:30;;;;;;;20.97;10.20;;;;;;;21.56;62.87;98774.80;125697;1097;102929;-69
2021/06/23 02:58:00;;;;;;;24.37;11.47;;;;;;;21.54;62.90;98765.18;125662;1095;102944;-71
2021/06/23 03:00:31;;;;;;;21.10;10.53;;;;;;;21.51;62.86;98766.41;125692;1096;103064;-69
2021/06/23 03:02:59;;;;;;;21.57;11.53;;;;;;;21.50;62.97;98770.15;125641;1097;103112;-68
2021/06/23 03:05:28;;;;;;;24.00;11.85;;;;;;;21.51;63.15;98765.56;125653;1096;103002;-69
2021/06/23 03:07:58;;;;;;;20.67;10.00;;;;;;;21.48;63.21;98764.09;125665;1096;103454;-68
2021/06/23 03:10:26;;;;;;;22.40;10.77;;;;;;;21.47;63.08;98772.38;125677;1095;102911;-69
2021/06/23 03:12:57;;;;;;;21.07;10.07;;;;;;;21.46;63.52;98765.28;125683;1095;103103;-68
2021/06/23 03:15:27;;;;;;;23.17;10.80;;;;;;;21.47;63.71;98761.55;125628;1094;102958;-69
2021/06/23 03:17:56;;;;;;;21.93;10.87;;;;;;;21.46;63.39;98763.44;125669;1096;103047;-69
2021/06/23 03:20:25;;;;;;;20.80;10.47;;;;;;;21.45;63.71;98777.99;125663;1096;103006;-69
2021/06/23 03:22:57;;;;;;;22.97;10.87;;;;;;;21.42;63.32;98775.66;125670;1096;102919;-69
2021/06/23 03:25:26;;;;;;;22.97;10.77;;;;;;;21.40;63.26;98775.84;125682;1096;102961;-70
2021/06/23 03:27:59;;;;;;;23.50;9.97;;;;;;;21.40;63.42;98775.84;125656;1096;102914;-69
2021/06/23 03:30:31;;;;;;;19.60;11.07;;;;;;;21.37;63.32;98776.24;125668;1096;102938;-69
2021/06/23 03:33:01;;;;;;;21.40;10.67;;;;;;;21.37;63.53;98786.21;125626;1097;102991;-71
2021/06/23 03:35:31;;;;;;;23.57;11.30;;;;;;;21.38;63.65;98794.16;125687;1096;102916;-69
2021/06/23 03:37:59;;;;;;;22.00;10.67;;;;;;;21.41;63.67;98798.33;125713;1095;103097;-70
2021/06/23 03:40:31;;;;;;;24.30;11.70;;;;;;;21.40;63.82;98802.06;125668;1096;103050;-70
2021/06/23 03:42:59;;;;;;;22.50;11.50;;;;;;;21.39;63.75;98808.50;125683;1096;102994;-69
2021/06/23 03:45:43;;;;;;;25.00;11.90;;;;;;;21.39;63.91;98806.66;125670;1096;102994;-69
2021/06/23 03:48:15;;;;;;;21.43;11.53;;;;;;;21.42;64.01;98816.25;125694;1096;102997;-71
2021/06/23 03:50:46;;;;;;;22.80;11.63;;;;;;;21.45;63.96;98817.72;125699;1095;102914;-69
2021/06/23 03:53:18;;;;;;;25.10;13.18;;;;;;;21.48;64.13;98811.94;125635;1095;102913;-68
2021/06/23 03:55:46;;;;;;;24.70;13.97;;;;;;;21.52;64.16;98814.09;125486;1096;103077;-70
2021/06/23 03:58:15;;;;;;;25.03;14.93;;;;;;;21.54;64.30;98806.63;125646;1095;103040;-69
2021/06/23 04:00:43;;;;;;;29.40;14.47;;;;;;;21.58;64.20;98817.90;125713;1095;103431;-70
2021/06/23 04:03:13;;;;;;;22.63;13.93;;;;;;;21.63;64.09;98811.94;125689;1096;103421;-71
2021/06/23 04:05:42;;;;;;;30.13;15.20;;;;;;;21.65;64.45;98815.30;125646;1096;103077;-69
2021/06/23 04:08:10;;;;;;;24.57;15.43;;;;;;;21.68;64.32;98814.91;125639;1095;102946;-68
2021/06/23 04:10:39;;;;;;;27.00;16.87;;;;;;;21.66;64.10;98822.39;125645;1097;103379;-69
2021/06/23 04:13:09;;;;;;;29.97;16.90;;;;;;;21.67;64.19;98815.94;125667;1095;102923;-69
2021/06/23 04:15:37;;;;;;;27.07;16.67;;;;;;;21.71;64.53;98809.13;125677;1095;103014;-69
2021/06/23 04:18:06;;;;;;;24.83;16.37;;;;;;;21.76;64.27;98820.22;125659;1097;103042;-69
2021/06/23 04:20:36;;;;;;;25.77;15.73;;;;;;;21.79;64.88;98817.14;125503;1096;102946;-70
2021/06/23 04:23:04;;;;;;;29.90;18.83;;;;;;;21.79;64.46;98817.14;125612;1095;102935;-69
2021/06/23 04:25:34;;;;;;;27.43;17.47;;;;;;;21.81;64.55;98812.38;125665;1096;102916;-69
2021/06/23 04:28:04;;;;;;;27.67;18.00;;;;;;;21.84;64.65;98821.97;125693;1095;102943;-70
2021/06/23 04:30:33;;;;;;;28.60;17.10;;;;;;;21.89;64.55;98826.83;125654;1095;102916;-70
2021/06/23 04:33:01;;;;;;;30.37;17.93;;;;;;;21.94;65.26;98837.92;125670;1096;102923;-71
2021/06/23 04:35:30;;;;;;;28.37;17.47;;;;;;;21.98;64.67;98848.17;125661;1096;102913;-70
2021/06/23 04:37:58;;;;;;;27.77;17.50;;;;;;;22.01;64.89;98847.80;125715;1095;102916;-69
2021/06/23 04:40:26;;;;;;;28.53;19.77;;;;;;;22.03;64.78;98847.59;125696;1096;103035;-70
2021/06/23 04:42:57;;;;;;;31.60;21.20;;;;;;;22.05;64.79;98848.23;125600;1095;103015;-69
2021/06/23 04:45:27;;;;;;;32.65;20.70;;;;;;;22.04;64.63;98851.97;125655;1097;103374;-71
2021/06/23 04:47:59;;;;;;;30.20;20.70;;;;;;;22.07;64.34;98861.60;125667;1097;102923;-69
2021/06/23 04:50:29;;;;;;;30.30;20.47;;;;;;;22.04;64.64;98853.86;125634;1097;102943;-69
2021/06/23 04:52:59;;;;;;;29.87;20.37;;;;;;;22.08;65.18;98855.98;125677;1095;103010;-70
2021/06/23 04:55:28;;;;;;;33.30;19.93;;;;;;;22.14;64.94;98852.51;125482;1096;103099;-70
2021/06/23 04:57:57;;;;;;;30.60;20.63;;;;;;;22.23;64.95;98858.63;125662;1097;103015;-70
2021/06/23 05:00:27;;;;;;;32.20;21.63;;;;;;;22.24;64.77;98856.78;125512;1096;103036;-70
2021/06/23 05:02:57;;;;;;;30.70;22.03;;;;;;;22.26;64.91;98857.42;125677;1096;102990;-70
2021/06/23 05:05:26;;;;;;;30.60;22.07;;;;;;;22.27;65.12;98846.38;125682;1097;102925;-74
2021/06/23 05:07:54;;;;;;;30.10;23.10;;;;;;;22.29;65.14;98838.90;125548;1095;103507;-72
2021/06/23 05:10:23;;;;;;;35.20;23.77;;;;;;;22.39;65.22;98841.31;125650;1097;103108;-71
2021/06/23 05:12:53;;;;;;;34.13;24.27;;;;;;;22.48;65.41;98854.73;125635;1097;102966;-72
2021/06/23 05:15:22;;;;;;;36.93;23.37;;;;;;;22.53;65.03;98863.13;126487;1097;100835;-71
2021/06/23 05:17:51;;;;;;;34.30;25.70;;;;;;;22.55;65.31;98869.19;125487;1096;103006;-72
2021/06/23 05:20:23;;;;;;;38.70;26.07;;;;;;;22.45;65.33;98864.10;125662;1097;103510;-71
2021/06/23 05:22:52;;;;;;;32.95;24.85;;;;;;;22.39;65.45;98879.24;125684;1097;103346;-73
2021/06/23 05:25:21;;;;;;;36.25;26.50;;;;;;;22.34;65.64;98875.41;125654;1097;103097;-72
2021/06/23 05:27:51;;;;;;;35.63;26.63;;;;;;;22.29;65.32;98876.00;125701;1096;103041;-71
2021/06/23 05:30:21;;;;;;;33.13;25.97;;;;;;;22.26;65.63;98877.21;125711;1097;103001;-72
2021/06/23 05:32:52;;;;;;;34.30;25.27;;;;;;;22.22;65.60;98881.33;125448;1095;103014;-70
2021/06/23 05:35:22;;;;;;;35.03;27.70;;;;;;;22.15;65.68;98888.57;125705;1095;102997;-71
2021/06/23 05:37:50;;;;;;;44.37;29.73;;;;;;;22.07;65.72;98900.34;125660;1097;103037;-72
2021/06/23 05:40:19;;;;;;;40.30;28.73;;;;;;;22.01;65.68;98907.37;125676;1095;102941;-71
2021/06/23 05:42:49;;;;;;;37.10;28.50;;;;;;;21.93;65.56;98899.34;125650;1096;103076;-71
2021/06/23 05:45:18;;;;;;;40.20;31.00;;;;;;;21.84;65.66;98909.45;125635;1096;103064;-72
2021/06/23 05:47:48;;;;;;;42.07;30.87;;;;;;;21.78;65.76;98912.09;125734;1096;103010;-71
2021/06/23 05:50:16;;;;;;;37.57;29.33;;;;;;;21.71;65.57;98903.86;125713;1095;103015;-72
2021/06/23 05:52:44;;;;;;;36.00;29.30;;;;;;;21.68;65.82;98909.64;125691;1095;102940;-72
2021/06/23 05:55:20;;;;;;;40.03;30.67;;;;;;;21.68;65.70;98912.35;125696;1096;104456;-71
2021/06/23 05:57:55;;;;;;;37.63;27.97;;;;;;;21.73;66.08;98912.63;125698;1096;103178;-72
2021/06/23 06:00:25;;;;;;;34.27;25.87;;;;;;;21.79;65.96;98911.06;125699;1096;102991;-72
2021/06/23 06:02:56;;;;;;;35.13;26.13;;;;;;;21.83;66.14;98918.60;125679;1096;103515;-72
2021/06/23 06:05:24;;;;;;;35.03;26.23;;;;;;;21.91;66.12;98922.23;125724;1097;102920;-71
2021/06/23 06:07:53;;;;;;;37.23;27.43;;;;;;;21.98;65.98;98923.17;125694;1095;103163;-71
2021/06/23 06:10:23;;;;;;;35.40;25.80;;;;;;;22.06;66.26;98919.50;125696;1097;103060;-72
2021/06/23 06:12:54;;;;;;;34.13;27.13;;;;;;;22.16;66.45;98922.75;125663;1096;104531;-72
2021/06/23 06:15:22;;;;;;;35.57;26.23;;;;;;;22.22;66.57;98923.85;125682;1095;102911;-72
2021/06/23 06:17:50;;;;;;;35.27;27.53;;;;;;;22.31;66.16;98918.11;125707;1095;103034;-74
2021/06/23 06:20:19;;;;;;;34.47;26.40;;;;;;;22.40;66.34;98918.00;125554;1096;103095;-75
2021/06/23 06:22:47;;;;;;;37.77;30.10;;;;;;;22.43;66.38;98923.04;125641;1097;103227;-73
2021/06/23 06:25:15;;;;;;;41.05;32.45;;;;;;;22.44;66.06;98925.58;125698;1096;102983;-73
2021/06/23 06:27:44;;;;;;;39.20;30.45;;;;;;;22.51;65.97;98919.39;125684;1096;103015;-71
2021/06/23 06:30:14;;;;;;;36.43;30.60;;;;;;;22.59;66.55;98922.83;125712;1096;103008;-71
2021/06/23 06:32:44;;;;;;;37.20;30.37;;;;;;;22.64;66.31;98922.23;125688;1096;102940;-72
2021/06/23 06:35:16;;;;;;;42.90;33.20;;;;;;;22.70;66.38;98921.47;125668;1096;102916;-71
2021/06/23 06:37:44;;;;;;;40.47;32.00;;;;;;;22.81;66.64;98924.70;125697;1096;102920;-72
2021/06/23 06:40:15;;;;;;;40.13;31.80;;;;;;;22.90;66.36;98921.65;125670;1096;103090;-71
2021/06/23 06:42:43;;;;;;;41.17;31.47;;;;;;;23.02;66.27;98923.83;125725;1094;103055;-72
2021/06/23 06:45:14;;;;;;;42.27;31.83;;;;;;;23.09;66.11;98929.30;125734;1095;103002;-72
2021/06/23 06:47:42;;;;;;;42.53;32.60;;;;;;;23.12;66.65;98940.58;125635;1096;103165;-72
2021/06/23 06:50:14;;;;;;;43.13;34.00;;;;;;;23.20;65.96;98953.19;125698;1095;102941;-72
2021/06/23 06:52:42;;;;;;;39.00;31.37;;;;;;;23.31;66.62;98960.80;125658;1096;103088;-73
2021/06/23 06:55:20;;;;;;;41.77;32.40;;;;;;;23.38;66.38;98965.44;125696;1097;102945;-71
2021/06/23 06:57:52;;;;;;;41.03;32.30;;;;;;;23.43;66.37;98968.41;125698;1096;103001;-72
2021/06/23 07:00:23;;;;;;;39.57;31.43;;;;;;;23.48;66.06;98968.66;125700;1096;103077;-72
2021/06/23 07:02:54;;;;;;;39.57;31.33;;;;;;;23.50;66.46;98974.72;125686;1096;102930;-72
2021/06/23 07:05:24;;;;;;;41.80;32.47;;;;;;;23.51;66.30;98970.11;125663;1096;103006;-72
2021/06/23 07:07:53;;;;;;;42.65;33.80;;;;;;;23.54;66.29;98969.72;125674;1095;102940;-72
2021/06/23 07:10:21;;;;;;;41.53;33.40;;;;;;;23.58;66.07;98966.43;125649;1096;103432;-72
2021/06/23 07:12:52;;;;;;;39.80;32.73;;;;;;;23.56;66.00;98971.22;125686;1095;103019;-73
2021/06/23 07:15:22;;;;;;;40.27;34.57;;;;;;;23.60;66.28;98967.07;125753;1096;103035;-75
2021/06/23 07:17:52;;;;;;;42.63;33.83;;;;;;;23.68;66.14;98974.21;125737;1096;102953;-73
2021/06/23 07:20:22;;;;;;;39.97;34.00;;;;;;;23.89;66.25;98976.00;125732;1096;103068;-74
2021/06/23 07:22:52;;;;;;;39.20;33.07;;;;;;;23.98;66.40;98976.70;125676;1096;102916;-72
2021/06/23 07:25:22;;;;;;;46.53;34.00;;;;;;;23.98;66.54;98986.70;125676;1095;102948;-72
2021/06/23 07:27:55;;;;;;;42.87;35.27;;;;;;;23.95;66.40;98993.36;125708;1097;103483;-70
2021/06/23 07:30:23;;;;;;;39.70;33.30;;;;;;;24.00;66.09;98998.24;125685;1094;103065;-72
2021/06/23 07:32:55;;;;;;;40.00;33.97;;;;;;;23.98;66.21;99000.28;125692;1097;103002;-72
2021/06/23 07:38:14;;;;;;;44.17;34.10;;;;;;;24.03;66.47;99008.70;125674;1097;103007;-71
2021/06/23 07:40:52;;;;;;;44.87;34.23;;;;;;;24.00;65.97;99001.78;125713;1095;102922;-73
2021/06/23 07:43:22;;;;;;;45.20;32.87;;;;;;;24.08;66.01;99007.05;125698;1096;103364;-72
2021/06/23 07:45:56;;;;;;;42.23;33.30;;;;;;;24.18;66.29;99008.56;125699;1097;103038;-72
2021/06/23 07:48:32;;;;;;;43.90;34.13;;;;;;;24.26;66.21;99011.09;125673;1096;102933;-73
2021/06/23 07:51:07;;;;;;;40.37;32.27;;;;;;;24.34;65.93;99002.77;125636;1097;103089;-72
2021/06/23 08:10:14;;;;;;;43.90;35.20;;;;;;;24.85;66.12;99016.97;125646;1095;103193;-73
2021/06/23 08:12:54;;;;;;;41.73;34.13;;;;;;;24.85;65.80;99025.13;125607;1094;102922;-74
2021/06/23 08:15:27;;;;;;;41.50;33.70;;;;;;;24.82;65.80;99023.67;125948;1095;102988;-72
2021/06/23 08:17:57;;;;;;;43.03;34.87;;;;;;;24.87;65.57;99017.59;125681;1094;103419;-71
2021/06/23 08:20:30;;;;;;;40.83;33.93;;;;;;;24.95;65.52;99017.41;125663;1095;103059;-73
2021/06/23 08:22:58;;;;;;;43.17;34.60;;;;;;;25.00;65.61;99019.50;125669;1096;103032;-72
2021/06/23 08:25:28;;;;;;;43.30;36.17;;;;;;;25.13;65.44;99024.11;125607;1096;103128;-73
2021/06/23 08:27:59;;;;;;;41.18;33.80;;;;;;;25.32;65.72;99027.89;125602;1095;102916;-71
2021/06/23 08:30:28;;;;;;;39.63;32.77;;;;;;;25.42;65.81;99025.59;125497;1095;103511;-72
2021/06/23 08:32:59;;;;;;;42.53;37.80;;;;;;;25.52;65.19;99025.20;125993;1095;102927;-71
2021/06/23 08:35:29;;;;;;;51.93;42.90;;;;;;;25.62;65.69;99032.96;125701;1096;102911;-72
2021/06/23 08:38:00;;;;;;;43.40;36.50;;;;;;;25.66;65.81;99027.91;125741;1096;102945;-72
2021/06/23 08:40:30;;;;;;;42.30;35.33;;;;;;;25.63;65.20;99039.23;125682;1096;104138;-72
2021/06/23 08:42:58;;;;;;;44.23;36.30;;;;;;;25.60;65.09;99036.92;125361;1095;102718;-72
2021/06/23 08:45:28;;;;;;;44.60;37.70;;;;;;;25.62;65.31;99043.00;125708;1096;103041;-73
2021/06/23 08:48:01;;;;;;;45.30;38.07;;;;;;;25.73;65.30;99027.89;125664;1096;102952;-72
2021/06/23 08:50:30;;;;;;;45.80;36.73;;;;;;;25.97;64.97;99034.56;125707;1095;102913;-71
2021/06/23 08:52:58;;;;;;;44.40;36.80;;;;;;;26.17;64.81;99029.09;125675;1095;103177;-71
2021/06/23 08:55:28;;;;;;;40.07;35.33;;;;;;;26.24;64.72;99038.08;125639;1094;103138;-71
2021/06/23 08:58:00;;;;;;;43.60;37.80;;;;;;;26.27;64.76;99040.38;125647;1096;103017;-72
2021/06/23 09:00:28;;;;;;;42.80;36.97;;;;;;;26.45;64.78;99033.41;125687;1096;102946;-71
2021/06/23 09:03:02;;;;;;;42.23;37.50;;;;;;;26.70;64.80;99029.91;125675;1096;103004;-72
2021/06/23 09:05:55;;;;;;;49.13;36.70;;;;;;;26.95;64.56;99038.20;125593;1096;103012;-72
2021/06/23 09:08:38;;;;;;;43.93;35.25;;;;;;;26.94;64.65;99044.71;125666;1095;103048;-72
2021/06/23 09:11:32;;;;;;;;;;;;;;;26.85;64.50;99041.41;125690;1096;103023;-72
2021/06/23 09:14:15;;;;;;;43.37;34.13;;;;;;;26.84;64.52;99038.89;125655;1095;102919;-72
2021/06/23 09:17:10;;;;;;;41.53;34.70;;;;;;;26.83;64.33;99050.86;125484;1095;103039;-71
2021/06/23 09:19:57;;;;;;;43.93;36.63;;;;;;;26.82;64.47;99051.91;125677;1094;102967;-71
2021/06/23 09:22:38;;;;;;;40.63;34.57;;;;;;;26.92;64.13;99056.88;125695;1094;103377;-72
2021/06/23 09:25:11;;;;;;;39.20;34.23;;;;;;;27.02;64.19;99060.83;125669;1095;102913;-72
2021/06/23 09:27:59;;;;;;;43.90;37.00;;;;;;;27.08;63.94;99056.38;125625;1095;102995;-73
2021/06/23 09:30:37;;;;;;;45.63;35.80;;;;;;;27.30;64.05;99056.03;125694;1096;102945;-72
2021/06/23 09:33:15;;;;;;;42.97;33.93;;;;;;;27.37;63.72;99056.78;125659;1096;103065;-72
2021/06/23 09:35:56;;;;;;;40.70;35.47;;;;;;;27.56;63.83;99049.52;125681;1096;103073;-74
2021/06/23 09:38:48;;;;;;;41.77;34.20;;;;;;;27.66;63.95;99059.11;125652;1096;103068;-74
2021/06/23 09:41:36;;;;;;;;;;;;;;;27.67;63.09;99060.78;125734;1096;103041;-75
2021/06/23 09:44:09;;;;;;;44.47;35.43;;;;;;;27.74;63.21;99054.19;125714;1096;102977;-73
2021/06/23 09:46:45;;;;;;;;;;;;;;;27.75;63.48;99049.58;125704;1095;102914;-73
2021/06/23 09:49:22;;;;;;;40.13;34.73;;;;;;;27.77;63.13;99048.27;125529;1096;102990;-74
2021/06/23 09:51:53;;;;;;;38.37;33.73;;;;;;;27.78;62.97;99049.13;125629;1094;102715;-73
2021/06/23 09:54:28;;;;;;;41.00;33.63;;;;;;;28.01;63.30;99050.36;125650;1095;103010;-73
2021/06/23 09:57:16;;;;;;;39.93;34.60;;;;;;;28.06;62.86;99059.56;125687;1096;103023;-72
2021/06/23 09:59:54;;;;;;;40.53;33.30;;;;;;;28.19;63.11;99063.23;125666;1096;103090;-73
2021/06/23 10:02:32;;;;;;;41.30;35.20;;;;;;;28.41;62.65;99047.20;125661;1095;103083;-74
2021/06/23 10:05:24;;;;;;;38.77;33.27;;;;;;;28.55;62.89;99042.38;125686;1095;103012;-72
2021/06/23 10:07:56;;;;;;;41.60;36.43;;;;;;;28.69;62.90;99051.28;125709;1096;102956;-73
2021/06/23 10:10:43;;;;;;;44.57;35.87;;;;;;;28.66;62.49;99052.55;125760;1096;103012;-72
2021/06/23 10:13:13;;;;;;;44.57;36.67;;;;;;;28.70;62.08;99050.21;125717;1095;103057;-71
2021/06/23 10:15:46;;;;;;;42.45;36.18;;;;;;;28.72;62.26;99049.97;125654;1096;103065;-73
2021/06/23 10:18:19;;;;;;;41.63;35.97;;;;;;;28.78;61.63;99044.42;125640;1096;104264;-71
2021/06/23 10:20:50;;;;;;;42.27;36.13;;;;;;;28.71;61.46;99042.83;125536;1096;103176;-71
2021/06/23 10:23:20;;;;;;;41.00;35.47;;;;;;;28.68;61.86;99031.27;125718;1096;102952;-73
2021/06/23 10:25:50;;;;;;;41.33;35.17;;;;;;;28.70;61.48;99032.94;125673;1096;103015;-70
2021/06/23 10:28:25;;;;;;;39.23;34.97;;;;;;;28.73;61.78;99029.75;125635;1096;103032;-71
2021/06/23 10:30:57;;;;;;;40.07;35.70;;;;;;;28.75;61.60;99028.47;125648;1096;103020;-72
2021/06/23 10:33:36;;;;;;;43.73;35.73;;;;;;;28.70;61.38;99027.47;125657;1096;103012;-73
2021/06/23 10:36:06;;;;;;;39.67;35.33;;;;;;;28.77;61.09;99020.86;125684;1095;102926;-74
2021/06/23 10:38:38;;;;;;;46.30;34.70;;;;;;;28.79;60.88;99026.94;125698;1096;102948;-73
2021/06/23 10:41:08;;;;;;;43.80;36.10;;;;;;;28.82;61.29;99040.16;125645;1096;102997;-72
2021/06/23 10:43:38;;;;;;;45.83;36.53;;;;;;;28.82;60.75;99025.66;125702;1096;103032;-72
2021/06/23 10:46:07;;;;;;;43.27;36.73;;;;;;;28.85;60.54;99024.34;125668;1095;102948;-72
2021/06/23 10:48:57;;;;;;;39.93;34.83;;;;;;;28.77;60.34;99028.25;125707;1094;103499;-72
2021/06/23 10:51:28;;;;;;;40.13;33.47;;;;;;;28.77;60.49;99020.04;125502;1095;103410;-72
2021/06/23 10:53:56;;;;;;;38.07;30.30;;;;;;;28.81;60.21;99024.80;125538;1096;103141;-72
2021/06/23 10:56:47;;;;;;;39.03;32.53;;;;;;;28.80;60.67;99020.39;125693;1095;102909;-77
2021/06/23 10:59:36;;;;;;;36.50;30.15;;;;;;;28.81;60.23;99021.25;125649;1096;102991;-71
2021/06/23 11:02:13;;;;;;;37.00;30.30;;;;;;;28.81;59.92;99018.51;125681;1096;102146;-71
2021/06/23 11:05:00;;;;;;;36.93;30.93;;;;;;;28.84;60.47;99017.20;125659;1094;103240;-75
2021/06/23 11:07:33;;;;;;;36.43;30.43;;;;;;;28.85;59.86;99022.45;125585;1095;103102;-74
2021/06/23 11:10:14;;;;;;;35.60;28.83;;;;;;;28.84;59.49;99017.20;125629;1095;102945;-72
2021/06/23 11:12:44;;;;;;;35.03;28.27;;;;;;;28.88;59.71;99019.25;125669;1096;103065;-72
2021/06/23 11:15:18;;;;;;;36.53;30.57;;;;;;;28.88;59.56;99013.78;125667;1097;103039;-74
2021/06/23 11:17:51;;;;;;;35.13;28.77;;;;;;;28.87;59.41;99008.52;125682;1096;102948;-71
2021/06/23 11:20:19;;;;;;;;;;;;;;;28.91;59.54;99010.58;125655;1095;103118;-71
2021/06/23 11:22:53;;;;;;;33.60;27.30;;;;;;;28.93;59.15;99007.59;125634;1095;103402;-72
2021/06/23 11:25:24;;;;;;;35.30;27.30;;;;;;;29.05;59.16;99010.35;125445;1095;102980;-73
2021/06/23 11:28:08;;;;;;;37.40;28.60;;;;;;;29.12;59.64;99024.78;126624;1095;102907;-72
2021/06/23 11:30:50;;;;;;;34.67;29.10;;;;;;;29.18;59.55;99020.25;125573;1094;102917;-73
2021/06/23 11:33:27;;;;;;;35.80;29.90;;;;;;;29.24;59.53;99020.17;125621;1095;103068;-73
2021/06/23 11:36:00;;;;;;;34.43;28.40;;;;;;;29.33;59.38;99026.13;125683;1096;103591;-72
2021/06/23 11:38:31;;;;;;;36.40;28.83;;;;;;;29.37;59.15;99021.03;125562;1096;103081;-72
2021/06/23 11:41:01;;;;;;;33.43;28.00;;;;;;;29.37;58.96;99024.62;125695;1095;103016;-70
2021/06/23 11:43:33;;;;;;;32.93;27.98;;;;;;;29.43;58.72;99028.30;125566;1096;103128;-73